sensor_id;sensor_type;location;lat;lon;timestamp;P1;durP1;ratioP1;P2;durP2;ratioP2
11427;SDS011;5770;44.504;11.346;2022-12-16T00:01:02;17.45;;;15.75;;
11427;SDS011;5770;44.504;11.346;2022-12-16T00:03:30;16.58;;;14.88;;
11427;SDS011;5770;44.504;11.346;2022-12-16T00:05:57;17.63;;;15.93;;
11427;SDS011;5770;44.504;11.346;2022-12-16T00:08:25;16.45;;;14.77;;
11427;SDS011;5770;44.504;11.346;2022-12-16T00:10:57;17.40;;;15.70;;
11427;SDS011;5770;44.504;11.346;2022-12-16T00:13:24;17.50;;;15.70;;
11427;SDS011;5770;44.504;11.346;2022-12-16T00:15:51;18.33;;;16.42;;
11427;SDS011;5770;44.504;11.346;2022-12-16T00:18:18;17.30;;;15.60;;
11427;SDS011;5770;44.504;11.346;2022-12-16T00:20:46;18.00;;;16.20;;
11427;SDS011;5770;44.504;11.346;2022-12-16T00:23:14;18.67;;;16.02;;
11427;SDS011;5770;44.504;11.346;2022-12-16T00:25:42;17.67;;;15.75;;
11427;SDS011;5770;44.504;11.346;2022-12-16T00:28:11;17.67;;;15.88;;
11427;SDS011;5770;44.504;11.346;2022-12-16T00:30:41;18.25;;;16.35;;
11427;SDS011;5770;44.504;11.346;2022-12-16T00:33:09;18.17;;;16.38;;
11427;SDS011;5770;44.504;11.346;2022-12-16T00:35:37;19.08;;;17.17;;
11427;SDS011;5770;44.504;11.346;2022-12-16T00:38:04;18.60;;;16.63;;
11427;SDS011;5770;44.504;11.346;2022-12-16T00:40:31;19.10;;;17.17;;
11427;SDS011;5770;44.504;11.346;2022-12-16T00:42:59;19.65;;;17.75;;
11427;SDS011;5770;44.504;11.346;2022-12-16T00:45:27;21.17;;;19.02;;
11427;SDS011;5770;44.504;11.346;2022-12-16T00:47:55;21.65;;;19.52;;
11427;SDS011;5770;44.504;11.346;2022-12-16T00:50:22;21.88;;;19.67;;
11427;SDS011;5770;44.504;11.346;2022-12-16T00:52:50;22.95;;;20.48;;
11427;SDS011;5770;44.504;11.346;2022-12-16T00:55:17;23.05;;;20.55;;
11427;SDS011;5770;44.504;11.346;2022-12-16T00:57:45;23.67;;;21.15;;
11427;SDS011;5770;44.504;11.346;2022-12-16T01:00:13;24.08;;;21.60;;
11427;SDS011;5770;44.504;11.346;2022-12-16T01:02:43;23.40;;;20.90;;
11427;SDS011;5770;44.504;11.346;2022-12-16T01:05:12;25.45;;;22.75;;
11427;SDS011;5770;44.504;11.346;2022-12-16T01:07:40;24.52;;;21.95;;
11427;SDS011;5770;44.504;11.346;2022-12-16T01:10:08;23.95;;;21.45;;
11427;SDS011;5770;44.504;11.346;2022-12-16T01:12:36;24.80;;;22.20;;
11427;SDS011;5770;44.504;11.346;2022-12-16T01:15:05;25.67;;;23.00;;
11427;SDS011;5770;44.504;11.346;2022-12-16T01:17:33;25.27;;;22.63;;
11427;SDS011;5770;44.504;11.346;2022-12-16T01:20:02;25.20;;;22.67;;
11427;SDS011;5770;44.504;11.346;2022-12-16T01:22:29;25.35;;;22.55;;
11427;SDS011;5770;44.504;11.346;2022-12-16T01:25:00;27.27;;;24.40;;
11427;SDS011;5770;44.504;11.346;2022-12-16T01:27:28;25.63;;;22.95;;
11427;SDS011;5770;44.504;11.346;2022-12-16T01:29:55;25.20;;;22.50;;
11427;SDS011;5770;44.504;11.346;2022-12-16T01:32:22;26.48;;;23.77;;
11427;SDS011;5770;44.504;11.346;2022-12-16T01:34:49;25.67;;;22.92;;
11427;SDS011;5770;44.504;11.346;2022-12-16T01:37:18;26.60;;;23.77;;
11427;SDS011;5770;44.504;11.346;2022-12-16T01:39:46;27.00;;;24.00;;
11427;SDS011;5770;44.504;11.346;2022-12-16T01:42:13;28.00;;;25.08;;
11427;SDS011;5770;44.504;11.346;2022-12-16T01:44:43;29.15;;;25.98;;
11427;SDS011;5770;44.504;11.346;2022-12-16T01:47:12;28.08;;;25.17;;
11427;SDS011;5770;44.504;11.346;2022-12-16T01:49:42;27.88;;;24.92;;
11427;SDS011;5770;44.504;11.346;2022-12-16T01:52:13;28.35;;;25.35;;
11427;SDS011;5770;44.504;11.346;2022-12-16T01:54:45;28.88;;;25.00;;
11427;SDS011;5770;44.504;11.346;2022-12-16T01:57:16;25.63;;;22.98;;
11427;SDS011;5770;44.504;11.346;2022-12-16T01:59:45;25.67;;;22.92;;
11427;SDS011;5770;44.504;11.346;2022-12-16T02:02:16;23.80;;;21.25;;
11427;SDS011;5770;44.504;11.346;2022-12-16T02:04:44;23.45;;;21.05;;
11427;SDS011;5770;44.504;11.346;2022-12-16T02:07:25;21.92;;;19.60;;
11427;SDS011;5770;44.504;11.346;2022-12-16T02:09:54;21.85;;;19.63;;
11427;SDS011;5770;44.504;11.346;2022-12-16T02:12:23;19.17;;;17.42;;
11427;SDS011;5770;44.504;11.346;2022-12-16T02:15:02;18.65;;;16.83;;
11427;SDS011;5770;44.504;11.346;2022-12-16T02:17:40;18.60;;;16.60;;
11427;SDS011;5770;44.504;11.346;2022-12-16T02:20:38;17.77;;;15.98;;
11427;SDS011;5770;44.504;11.346;2022-12-16T02:26:37;17.67;;;15.85;;
11427;SDS011;5770;44.504;11.346;2022-12-16T02:32:01;18.00;;;16.20;;
11427;SDS011;5770;44.504;11.346;2022-12-16T02:34:38;17.50;;;15.70;;
11427;SDS011;5770;44.504;11.346;2022-12-16T02:37:16;17.85;;;16.13;;
11427;SDS011;5770;44.504;11.346;2022-12-16T02:39:45;16.98;;;15.27;;
11427;SDS011;5770;44.504;11.346;2022-12-16T02:42:18;17.05;;;14.75;;
11427;SDS011;5770;44.504;11.346;2022-12-16T02:44:52;15.40;;;13.85;;
11427;SDS011;5770;44.504;11.346;2022-12-16T02:47:23;13.70;;;12.43;;
11427;SDS011;5770;44.504;11.346;2022-12-16T02:49:50;13.75;;;12.50;;
11427;SDS011;5770;44.504;11.346;2022-12-16T02:52:20;14.18;;;12.35;;
11427;SDS011;5770;44.504;11.346;2022-12-16T02:54:50;13.98;;;12.57;;
11427;SDS011;5770;44.504;11.346;2022-12-16T03:00:25;12.93;;;11.65;;
11427;SDS011;5770;44.504;11.346;2022-12-16T03:03:01;13.55;;;12.10;;
11427;SDS011;5770;44.504;11.346;2022-12-16T03:05:34;12.25;;;11.07;;
11427;SDS011;5770;44.504;11.346;2022-12-16T03:08:05;13.82;;;11.52;;
11427;SDS011;5770;44.504;11.346;2022-12-16T03:10:34;12.43;;;11.23;;
11427;SDS011;5770;44.504;11.346;2022-12-16T03:13:06;10.88;;;9.80;;
11427;SDS011;5770;44.504;11.346;2022-12-16T03:15:36;10.85;;;9.82;;
11427;SDS011;5770;44.504;11.346;2022-12-16T03:18:08;12.07;;;10.00;;
11427;SDS011;5770;44.504;11.346;2022-12-16T03:20:37;11.77;;;10.55;;
11427;SDS011;5770;44.504;11.346;2022-12-16T03:23:09;11.63;;;10.00;;
11427;SDS011;5770;44.504;11.346;2022-12-16T03:25:38;11.57;;;10.38;;
11427;SDS011;5770;44.504;11.346;2022-12-16T03:28:10;11.70;;;10.50;;
11427;SDS011;5770;44.504;11.346;2022-12-16T03:30:44;11.52;;;10.05;;
11427;SDS011;5770;44.504;11.346;2022-12-16T03:33:19;11.07;;;9.65;;
11427;SDS011;5770;44.504;11.346;2022-12-16T03:35:53;11.85;;;10.25;;
11427;SDS011;5770;44.504;11.346;2022-12-16T03:38:25;10.63;;;9.60;;
11427;SDS011;5770;44.504;11.346;2022-12-16T03:40:53;10.48;;;9.27;;
11427;SDS011;5770;44.504;11.346;2022-12-16T03:43:21;10.27;;;9.25;;
11427;SDS011;5770;44.504;11.346;2022-12-16T03:45:50;10.65;;;9.07;;
11427;SDS011;5770;44.504;11.346;2022-12-16T03:48:23;9.73;;;8.68;;
11427;SDS011;5770;44.504;11.346;2022-12-16T03:50:51;10.25;;;8.27;;
11427;SDS011;5770;44.504;11.346;2022-12-16T03:53:18;10.35;;;9.30;;
11427;SDS011;5770;44.504;11.346;2022-12-16T03:55:48;9.95;;;8.20;;
11427;SDS011;5770;44.504;11.346;2022-12-16T03:58:15;10.07;;;8.20;;
11427;SDS011;5770;44.504;11.346;2022-12-16T04:00:42;9.43;;;8.27;;
11427;SDS011;5770;44.504;11.346;2022-12-16T04:03:10;13.10;;;8.50;;
11427;SDS011;5770;44.504;11.346;2022-12-16T04:05:38;9.13;;;8.15;;
11427;SDS011;5770;44.504;11.346;2022-12-16T04:08:06;11.85;;;8.45;;
11427;SDS011;5770;44.504;11.346;2022-12-16T04:10:33;9.13;;;8.10;;
11427;SDS011;5770;44.504;11.346;2022-12-16T04:13:17;11.52;;;8.18;;
11427;SDS011;5770;44.504;11.346;2022-12-16T04:16:01;8.52;;;7.72;;
11427;SDS011;5770;44.504;11.346;2022-12-16T04:18:51;10.13;;;8.25;;
11427;SDS011;5770;44.504;11.346;2022-12-16T04:21:38;9.23;;;7.78;;
11427;SDS011;5770;44.504;11.346;2022-12-16T04:24:22;8.70;;;7.80;;
11427;SDS011;5770;44.504;11.346;2022-12-16T04:26:52;8.38;;;7.45;;
11427;SDS011;5770;44.504;11.346;2022-12-16T04:29:37;8.80;;;7.90;;
11427;SDS011;5770;44.504;11.346;2022-12-16T04:32:27;8.40;;;7.60;;
11427;SDS011;5770;44.504;11.346;2022-12-16T04:35:16;9.05;;;7.70;;
11427;SDS011;5770;44.504;11.346;2022-12-16T04:38:02;10.07;;;7.90;;
11427;SDS011;5770;44.504;11.346;2022-12-16T04:40:46;8.00;;;7.20;;
11427;SDS011;5770;44.504;11.346;2022-12-16T04:43:31;9.50;;;7.05;;
11427;SDS011;5770;44.504;11.346;2022-12-16T04:46:16;9.85;;;7.45;;
11427;SDS011;5770;44.504;11.346;2022-12-16T04:49:00;9.63;;;7.15;;
11427;SDS011;5770;44.504;11.346;2022-12-16T04:51:45;8.85;;;6.97;;
11427;SDS011;5770;44.504;11.346;2022-12-16T04:54:31;8.70;;;6.07;;
11427;SDS011;5770;44.504;11.346;2022-12-16T04:57:15;8.68;;;6.65;;
11427;SDS011;5770;44.504;11.346;2022-12-16T05:00:00;9.45;;;6.78;;
11427;SDS011;5770;44.504;11.346;2022-12-16T05:02:47;8.23;;;7.20;;
11427;SDS011;5770;44.504;11.346;2022-12-16T05:05:32;7.63;;;6.90;;
11427;SDS011;5770;44.504;11.346;2022-12-16T05:08:13;7.88;;;6.45;;
11427;SDS011;5770;44.504;11.346;2022-12-16T05:10:58;7.70;;;6.80;;
11427;SDS011;5770;44.504;11.346;2022-12-16T05:13:43;7.78;;;6.80;;
11427;SDS011;5770;44.504;11.346;2022-12-16T05:16:27;7.70;;;7.00;;
11427;SDS011;5770;44.504;11.346;2022-12-16T05:19:12;7.78;;;6.97;;
11427;SDS011;5770;44.504;11.346;2022-12-16T05:21:57;7.60;;;6.65;;
11427;SDS011;5770;44.504;11.346;2022-12-16T05:24:42;7.35;;;6.65;;
11427;SDS011;5770;44.504;11.346;2022-12-16T05:27:28;7.22;;;6.55;;
11427;SDS011;5770;44.504;11.346;2022-12-16T05:30:12;7.40;;;6.60;;
11427;SDS011;5770;44.504;11.346;2022-12-16T05:32:56;6.85;;;6.25;;
11427;SDS011;5770;44.504;11.346;2022-12-16T05:35:41;7.10;;;6.10;;
11427;SDS011;5770;44.504;11.346;2022-12-16T05:38:22;6.90;;;5.90;;
11427;SDS011;5770;44.504;11.346;2022-12-16T05:41:06;6.97;;;6.40;;
11427;SDS011;5770;44.504;11.346;2022-12-16T05:43:52;6.45;;;5.80;;
11427;SDS011;5770;44.504;11.346;2022-12-16T05:46:37;6.25;;;5.72;;
11427;SDS011;5770;44.504;11.346;2022-12-16T05:49:22;6.70;;;6.10;;
11427;SDS011;5770;44.504;11.346;2022-12-16T05:52:07;6.47;;;5.95;;
11427;SDS011;5770;44.504;11.346;2022-12-16T05:54:48;6.28;;;5.78;;
11427;SDS011;5770;44.504;11.346;2022-12-16T05:57:47;7.75;;;7.05;;
11427;SDS011;5770;44.504;11.346;2022-12-16T06:00:34;7.60;;;6.90;;
11427;SDS011;5770;44.504;11.346;2022-12-16T06:03:19;7.63;;;6.97;;
11427;SDS011;5770;44.504;11.346;2022-12-16T06:06:04;7.13;;;6.53;;
11427;SDS011;5770;44.504;11.346;2022-12-16T06:08:49;7.05;;;6.45;;
11427;SDS011;5770;44.504;11.346;2022-12-16T06:11:34;6.10;;;5.60;;
11427;SDS011;5770;44.504;11.346;2022-12-16T06:14:19;6.80;;;6.25;;
11427;SDS011;5770;44.504;11.346;2022-12-16T06:17:05;6.85;;;6.25;;
11427;SDS011;5770;44.504;11.346;2022-12-16T06:19:50;7.57;;;6.90;;
11427;SDS011;5770;44.504;11.346;2022-12-16T06:22:34;7.30;;;6.70;;
11427;SDS011;5770;44.504;11.346;2022-12-16T06:25:19;7.40;;;6.70;;
11427;SDS011;5770;44.504;11.346;2022-12-16T06:28:03;7.75;;;7.15;;
11427;SDS011;5770;44.504;11.346;2022-12-16T06:30:48;8.05;;;7.35;;
11427;SDS011;5770;44.504;11.346;2022-12-16T06:33:34;8.90;;;8.13;;
11427;SDS011;5770;44.504;11.346;2022-12-16T06:36:18;9.70;;;8.90;;
11427;SDS011;5770;44.504;11.346;2022-12-16T06:39:03;10.88;;;8.52;;
11427;SDS011;5770;44.504;11.346;2022-12-16T06:41:49;10.10;;;9.10;;
11427;SDS011;5770;44.504;11.346;2022-12-16T06:44:34;10.30;;;9.30;;
11427;SDS011;5770;44.504;11.346;2022-12-16T06:47:18;10.70;;;9.80;;
11427;SDS011;5770;44.504;11.346;2022-12-16T06:50:04;11.88;;;10.80;;
11427;SDS011;5770;44.504;11.346;2022-12-16T06:52:49;12.52;;;11.43;;
11427;SDS011;5770;44.504;11.346;2022-12-16T06:55:33;13.30;;;12.05;;
11427;SDS011;5770;44.504;11.346;2022-12-16T06:58:17;13.60;;;12.30;;
11427;SDS011;5770;44.504;11.346;2022-12-16T07:01:02;12.93;;;11.63;;
11427;SDS011;5770;44.504;11.346;2022-12-16T07:03:47;12.68;;;11.57;;
11427;SDS011;5770;44.504;11.346;2022-12-16T07:06:32;12.68;;;11.48;;
11427;SDS011;5770;44.504;11.346;2022-12-16T07:09:17;13.32;;;12.02;;
11427;SDS011;5770;44.504;11.346;2022-12-16T07:12:02;14.50;;;13.05;;
11427;SDS011;5770;44.504;11.346;2022-12-16T07:14:47;13.85;;;12.43;;
11427;SDS011;5770;44.504;11.346;2022-12-16T07:17:32;13.75;;;12.35;;
11427;SDS011;5770;44.504;11.346;2022-12-16T07:20:17;13.95;;;12.60;;
11427;SDS011;5770;44.504;11.346;2022-12-16T07:23:03;13.38;;;12.13;;
11427;SDS011;5770;44.504;11.346;2022-12-16T07:25:52;13.23;;;11.98;;
11427;SDS011;5770;44.504;11.346;2022-12-16T07:28:36;13.25;;;12.00;;
11427;SDS011;5770;44.504;11.346;2022-12-16T07:31:21;13.02;;;11.63;;
11427;SDS011;5770;44.504;11.346;2022-12-16T07:34:05;14.50;;;13.10;;
11427;SDS011;5770;44.504;11.346;2022-12-16T07:36:50;12.98;;;11.75;;
11427;SDS011;5770;44.504;11.346;2022-12-16T07:39:37;16.38;;;12.32;;
11427;SDS011;5770;44.504;11.346;2022-12-16T07:42:21;13.50;;;12.20;;
11427;SDS011;5770;44.504;11.346;2022-12-16T07:45:06;13.95;;;12.55;;
11427;SDS011;5770;44.504;11.346;2022-12-16T07:47:51;11.80;;;10.70;;
11427;SDS011;5770;44.504;11.346;2022-12-16T07:50:35;13.10;;;11.80;;
11427;SDS011;5770;44.504;11.346;2022-12-16T07:53:21;14.70;;;12.52;;
11427;SDS011;5770;44.504;11.346;2022-12-16T07:56:07;12.70;;;11.48;;
11427;SDS011;5770;44.504;11.346;2022-12-16T07:58:52;13.27;;;11.98;;
11427;SDS011;5770;44.504;11.346;2022-12-16T08:01:44;13.65;;;12.20;;
11427;SDS011;5770;44.504;11.346;2022-12-16T08:04:44;14.63;;;12.70;;
11427;SDS011;5770;44.504;11.346;2022-12-16T08:07:28;14.23;;;12.93;;
11427;SDS011;5770;44.504;11.346;2022-12-16T08:10:13;14.63;;;12.43;;
11427;SDS011;5770;44.504;11.346;2022-12-16T08:13:02;14.88;;;13.43;;
11427;SDS011;5770;44.504;11.346;2022-12-16T08:15:47;15.18;;;13.57;;
11427;SDS011;5770;44.504;11.346;2022-12-16T08:18:32;15.32;;;13.73;;
11427;SDS011;5770;44.504;11.346;2022-12-16T08:21:17;15.20;;;13.63;;
11427;SDS011;5770;44.504;11.346;2022-12-16T08:24:02;14.88;;;13.40;;
11427;SDS011;5770;44.504;11.346;2022-12-16T08:26:47;14.65;;;13.15;;
11427;SDS011;5770;44.504;11.346;2022-12-16T08:29:37;15.18;;;13.77;;
11427;SDS011;5770;44.504;11.346;2022-12-16T08:32:22;14.80;;;13.35;;
11427;SDS011;5770;44.504;11.346;2022-12-16T08:35:07;14.73;;;13.30;;
11427;SDS011;5770;44.504;11.346;2022-12-16T08:37:53;15.20;;;13.50;;
11427;SDS011;5770;44.504;11.346;2022-12-16T08:40:38;15.20;;;13.60;;
11427;SDS011;5770;44.504;11.346;2022-12-16T08:43:24;16.70;;;14.95;;
11427;SDS011;5770;44.504;11.346;2022-12-16T08:46:12;15.18;;;13.68;;
11427;SDS011;5770;44.504;11.346;2022-12-16T08:48:56;14.70;;;13.20;;
11427;SDS011;5770;44.504;11.346;2022-12-16T08:51:41;14.63;;;13.18;;
11427;SDS011;5770;44.504;11.346;2022-12-16T08:54:34;15.98;;;13.98;;
11427;SDS011;5770;44.504;11.346;2022-12-16T08:57:19;15.82;;;14.18;;
11427;SDS011;5770;44.504;11.346;2022-12-16T09:00:04;16.00;;;13.85;;
11427;SDS011;5770;44.504;11.346;2022-12-16T09:02:53;14.85;;;13.45;;
11427;SDS011;5770;44.504;11.346;2022-12-16T09:05:37;16.52;;;14.25;;
11427;SDS011;5770;44.504;11.346;2022-12-16T09:08:22;16.80;;;14.93;;
11427;SDS011;5770;44.504;11.346;2022-12-16T09:11:08;15.02;;;13.52;;
11427;SDS011;5770;44.504;11.346;2022-12-16T09:13:54;15.80;;;14.02;;
11427;SDS011;5770;44.504;11.346;2022-12-16T09:16:39;15.13;;;13.63;;
11427;SDS011;5770;44.504;11.346;2022-12-16T09:19:36;14.98;;;13.38;;
11427;SDS011;5770;44.504;11.346;2022-12-16T09:22:26;13.88;;;12.50;;
11427;SDS011;5770;44.504;11.346;2022-12-16T09:25:11;15.30;;;13.70;;
11427;SDS011;5770;44.504;11.346;2022-12-16T09:27:55;14.13;;;12.60;;
11427;SDS011;5770;44.504;11.346;2022-12-16T09:30:40;13.95;;;12.57;;
11427;SDS011;5770;44.504;11.346;2022-12-16T09:33:24;14.27;;;12.60;;
11427;SDS011;5770;44.504;11.346;2022-12-16T09:36:10;15.95;;;13.40;;
11427;SDS011;5770;44.504;11.346;2022-12-16T09:38:55;23.25;;;15.48;;
11427;SDS011;5770;44.504;11.346;2022-12-16T09:41:41;14.77;;;13.27;;
11427;SDS011;5770;44.504;11.346;2022-12-16T09:44:33;14.88;;;13.38;;
11427;SDS011;5770;44.504;11.346;2022-12-16T09:47:28;15.27;;;13.57;;
11427;SDS011;5770;44.504;11.346;2022-12-16T09:50:18;15.13;;;13.63;;
11427;SDS011;5770;44.504;11.346;2022-12-16T09:53:10;14.02;;;12.60;;
11427;SDS011;5770;44.504;11.346;2022-12-16T09:55:55;14.10;;;12.70;;
11427;SDS011;5770;44.504;11.346;2022-12-16T09:58:42;16.95;;;13.63;;
11427;SDS011;5770;44.504;11.346;2022-12-16T10:01:28;14.25;;;12.85;;
11427;SDS011;5770;44.504;11.346;2022-12-16T10:04:15;13.73;;;12.25;;
11427;SDS011;5770;44.504;11.346;2022-12-16T10:07:00;12.20;;;11.10;;
11427;SDS011;5770;44.504;11.346;2022-12-16T10:09:48;11.68;;;10.60;;
11427;SDS011;5770;44.504;11.346;2022-12-16T10:12:39;11.52;;;10.30;;
11427;SDS011;5770;44.504;11.346;2022-12-16T10:15:34;10.93;;;9.82;;
11427;SDS011;5770;44.504;11.346;2022-12-16T10:18:30;11.07;;;9.98;;
11427;SDS011;5770;44.504;11.346;2022-12-16T10:21:22;10.57;;;9.10;;
11427;SDS011;5770;44.504;11.346;2022-12-16T10:24:15;10.27;;;7.88;;
11427;SDS011;5770;44.504;11.346;2022-12-16T10:27:08;9.30;;;8.40;;
11427;SDS011;5770;44.504;11.346;2022-12-16T10:29:56;8.82;;;7.88;;
11427;SDS011;5770;44.504;11.346;2022-12-16T10:32:41;9.38;;;7.78;;
11427;SDS011;5770;44.504;11.346;2022-12-16T10:35:29;7.72;;;7.03;;
11427;SDS011;5770;44.504;11.346;2022-12-16T10:38:24;7.70;;;6.80;;
11427;SDS011;5770;44.504;11.346;2022-12-16T10:41:12;8.23;;;7.43;;
11427;SDS011;5770;44.504;11.346;2022-12-16T10:44:01;7.20;;;6.60;;
11427;SDS011;5770;44.504;11.346;2022-12-16T10:46:49;8.10;;;7.25;;
11427;SDS011;5770;44.504;11.346;2022-12-16T10:49:33;9.90;;;8.07;;
11427;SDS011;5770;44.504;11.346;2022-12-16T10:52:18;8.75;;;7.85;;
11427;SDS011;5770;44.504;11.346;2022-12-16T10:55:05;7.60;;;6.80;;
11427;SDS011;5770;44.504;11.346;2022-12-16T10:57:59;7.82;;;7.05;;
11427;SDS011;5770;44.504;11.346;2022-12-16T11:00:48;7.32;;;6.63;;
11427;SDS011;5770;44.504;11.346;2022-12-16T11:03:34;7.97;;;6.70;;
11427;SDS011;5770;44.504;11.346;2022-12-16T11:06:21;6.35;;;5.80;;
11427;SDS011;5770;44.504;11.346;2022-12-16T11:09:17;7.65;;;6.82;;
11427;SDS011;5770;44.504;11.346;2022-12-16T11:15:23;7.72;;;7.03;;
11427;SDS011;5770;44.504;11.346;2022-12-16T11:18:11;8.07;;;7.35;;
11427;SDS011;5770;44.504;11.346;2022-12-16T11:24:12;7.60;;;6.90;;
11427;SDS011;5770;44.504;11.346;2022-12-16T11:26:58;7.55;;;6.85;;
11427;SDS011;5770;44.504;11.346;2022-12-16T11:29:51;7.82;;;7.20;;
11427;SDS011;5770;44.504;11.346;2022-12-16T11:32:37;7.30;;;6.78;;
11427;SDS011;5770;44.504;11.346;2022-12-16T11:35:25;7.90;;;7.10;;
11427;SDS011;5770;44.504;11.346;2022-12-16T11:38:12;7.57;;;6.88;;
11427;SDS011;5770;44.504;11.346;2022-12-16T11:41:07;7.57;;;6.78;;
11427;SDS011;5770;44.504;11.346;2022-12-16T11:44:05;8.02;;;7.32;;
11427;SDS011;5770;44.504;11.346;2022-12-16T11:46:51;7.95;;;7.18;;
11427;SDS011;5770;44.504;11.346;2022-12-16T11:49:37;7.97;;;7.05;;
11427;SDS011;5770;44.504;11.346;2022-12-16T11:52:23;7.63;;;6.93;;
11427;SDS011;5770;44.504;11.346;2022-12-16T11:55:14;7.55;;;6.90;;
11427;SDS011;5770;44.504;11.346;2022-12-16T11:58:04;8.10;;;7.40;;
11427;SDS011;5770;44.504;11.346;2022-12-16T12:00:56;8.15;;;7.45;;
11427;SDS011;5770;44.504;11.346;2022-12-16T12:03:46;7.90;;;7.20;;
11427;SDS011;5770;44.504;11.346;2022-12-16T12:06:36;7.68;;;7.07;;
11427;SDS011;5770;44.504;11.346;2022-12-16T12:09:35;8.80;;;7.90;;
11427;SDS011;5770;44.504;11.346;2022-12-16T12:12:37;8.32;;;7.53;;
11427;SDS011;5770;44.504;11.346;2022-12-16T12:15:26;8.07;;;7.38;;
11427;SDS011;5770;44.504;11.346;2022-12-16T12:18:35;8.57;;;7.78;;
11427;SDS011;5770;44.504;11.346;2022-12-16T12:21:24;8.48;;;7.68;;
11427;SDS011;5770;44.504;11.346;2022-12-16T12:24:14;8.85;;;8.05;;
11427;SDS011;5770;44.504;11.346;2022-12-16T12:27:11;8.85;;;8.15;;
11427;SDS011;5770;44.504;11.346;2022-12-16T12:30:02;9.68;;;8.77;;
11427;SDS011;5770;44.504;11.346;2022-12-16T12:32:52;10.48;;;9.23;;
11427;SDS011;5770;44.504;11.346;2022-12-16T12:35:51;9.80;;;8.90;;
11427;SDS011;5770;44.504;11.346;2022-12-16T12:38:41;10.10;;;8.57;;
11427;SDS011;5770;44.504;11.346;2022-12-16T12:41:39;10.27;;;9.38;;
11427;SDS011;5770;44.504;11.346;2022-12-16T12:44:29;9.43;;;8.63;;
11427;SDS011;5770;44.504;11.346;2022-12-16T12:47:17;10.32;;;9.20;;
11427;SDS011;5770;44.504;11.346;2022-12-16T12:50:04;11.30;;;10.20;;
11427;SDS011;5770;44.504;11.346;2022-12-16T12:53:00;11.70;;;10.02;;
11427;SDS011;5770;44.504;11.346;2022-12-16T12:55:56;12.00;;;10.75;;
11427;SDS011;5770;44.504;11.346;2022-12-16T12:58:48;13.18;;;11.88;;
11427;SDS011;5770;44.504;11.346;2022-12-16T13:01:38;12.68;;;11.52;;
11427;SDS011;5770;44.504;11.346;2022-12-16T13:04:40;12.18;;;10.98;;
11427;SDS011;5770;44.504;11.346;2022-12-16T13:07:33;12.20;;;11.10;;
11427;SDS011;5770;44.504;11.346;2022-12-16T13:10:32;15.10;;;12.27;;
11427;SDS011;5770;44.504;11.346;2022-12-16T13:13:27;13.60;;;12.23;;
11427;SDS011;5770;44.504;11.346;2022-12-16T13:19:59;14.30;;;12.93;;
11427;SDS011;5770;44.504;11.346;2022-12-16T13:22:44;15.65;;;14.15;;
11427;SDS011;5770;44.504;11.346;2022-12-16T13:25:35;15.18;;;13.77;;
11427;SDS011;5770;44.504;11.346;2022-12-16T13:28:23;16.20;;;14.60;;
11427;SDS011;5770;44.504;11.346;2022-12-16T13:31:09;15.95;;;14.00;;
11427;SDS011;5770;44.504;11.346;2022-12-16T13:33:54;15.68;;;14.18;;
11427;SDS011;5770;44.504;11.346;2022-12-16T13:36:47;16.55;;;14.95;;
11427;SDS011;5770;44.504;11.346;2022-12-16T13:39:36;16.80;;;15.10;;
11427;SDS011;5770;44.504;11.346;2022-12-16T13:42:46;17.40;;;15.65;;
11427;SDS011;5770;44.504;11.346;2022-12-16T13:45:37;20.83;;;17.77;;
11427;SDS011;5770;44.504;11.346;2022-12-16T13:48:36;21.00;;;18.90;;
11427;SDS011;5770;44.504;11.346;2022-12-16T13:54:52;22.70;;;20.25;;
11427;SDS011;5770;44.504;11.346;2022-12-16T13:57:39;22.90;;;20.60;;
11427;SDS011;5770;44.504;11.346;2022-12-16T14:00:29;22.13;;;20.02;;
11427;SDS011;5770;44.504;11.346;2022-12-16T14:03:17;23.88;;;21.17;;
11427;SDS011;5770;44.504;11.346;2022-12-16T14:06:08;22.80;;;20.55;;
11427;SDS011;5770;44.504;11.346;2022-12-16T14:08:59;25.27;;;21.98;;
11427;SDS011;5770;44.504;11.346;2022-12-16T14:11:47;23.05;;;20.63;;
11427;SDS011;5770;44.504;11.346;2022-12-16T14:14:39;23.50;;;21.23;;
11427;SDS011;5770;44.504;11.346;2022-12-16T14:17:32;24.67;;;22.30;;
11427;SDS011;5770;44.504;11.346;2022-12-16T14:20:21;24.50;;;22.20;;
11427;SDS011;5770;44.504;11.346;2022-12-16T14:23:16;23.60;;;21.27;;
11427;SDS011;5770;44.504;11.346;2022-12-16T14:26:11;24.00;;;21.58;;
11427;SDS011;5770;44.504;11.346;2022-12-16T14:28:59;23.48;;;21.27;;
11427;SDS011;5770;44.504;11.346;2022-12-16T14:31:52;22.98;;;20.58;;
11427;SDS011;5770;44.504;11.346;2022-12-16T14:34:36;23.27;;;20.83;;
11427;SDS011;5770;44.504;11.346;2022-12-16T14:37:22;23.00;;;20.67;;
11427;SDS011;5770;44.504;11.346;2022-12-16T14:40:17;22.95;;;20.75;;
11427;SDS011;5770;44.504;11.346;2022-12-16T14:43:03;22.42;;;19.98;;
11427;SDS011;5770;44.504;11.346;2022-12-16T14:45:56;22.80;;;20.50;;
11427;SDS011;5770;44.504;11.346;2022-12-16T14:48:43;23.25;;;20.92;;
11427;SDS011;5770;44.504;11.346;2022-12-16T14:51:29;23.85;;;21.48;;
11427;SDS011;5770;44.504;11.346;2022-12-16T14:54:21;23.92;;;21.52;;
11427;SDS011;5770;44.504;11.346;2022-12-16T14:57:14;23.25;;;20.85;;
11427;SDS011;5770;44.504;11.346;2022-12-16T15:00:01;24.60;;;22.10;;
11427;SDS011;5770;44.504;11.346;2022-12-16T15:02:55;24.80;;;22.30;;
11427;SDS011;5770;44.504;11.346;2022-12-16T15:05:42;24.52;;;22.13;;
11427;SDS011;5770;44.504;11.346;2022-12-16T15:08:27;23.98;;;21.65;;
11427;SDS011;5770;44.504;11.346;2022-12-16T15:11:14;25.33;;;22.75;;
11427;SDS011;5770;44.504;11.346;2022-12-16T15:14:02;25.70;;;22.63;;
11427;SDS011;5770;44.504;11.346;2022-12-16T15:16:47;24.70;;;22.20;;
11427;SDS011;5770;44.504;11.346;2022-12-16T15:19:37;25.20;;;22.27;;
11427;SDS011;5770;44.504;11.346;2022-12-16T15:22:25;27.55;;;24.17;;
11427;SDS011;5770;44.504;11.346;2022-12-16T15:25:24;26.90;;;24.20;;
11427;SDS011;5770;44.504;11.346;2022-12-16T15:28:21;26.77;;;23.92;;
11427;SDS011;5770;44.504;11.346;2022-12-16T15:31:14;26.90;;;24.17;;
11427;SDS011;5770;44.504;11.346;2022-12-16T15:34:24;27.65;;;24.85;;
11427;SDS011;5770;44.504;11.346;2022-12-16T15:37:17;29.23;;;26.20;;
11427;SDS011;5770;44.504;11.346;2022-12-16T15:40:20;28.13;;;25.33;;
11427;SDS011;5770;44.504;11.346;2022-12-16T15:43:18;28.00;;;25.05;;
11427;SDS011;5770;44.504;11.346;2022-12-16T15:46:24;26.90;;;24.15;;
11427;SDS011;5770;44.504;11.346;2022-12-16T15:49:15;29.42;;;25.60;;
11427;SDS011;5770;44.504;11.346;2022-12-16T15:52:01;28.85;;;24.85;;
11427;SDS011;5770;44.504;11.346;2022-12-16T15:58:10;28.17;;;25.27;;
11427;SDS011;5770;44.504;11.346;2022-12-16T16:00:57;29.23;;;26.08;;
11427;SDS011;5770;44.504;11.346;2022-12-16T16:03:46;29.75;;;26.13;;
11427;SDS011;5770;44.504;11.346;2022-12-16T16:06:32;28.30;;;25.35;;
11427;SDS011;5770;44.504;11.346;2022-12-16T16:09:19;29.65;;;25.77;;
11427;SDS011;5770;44.504;11.346;2022-12-16T16:12:04;29.95;;;26.38;;
11427;SDS011;5770;44.504;11.346;2022-12-16T16:14:51;29.35;;;25.42;;
11427;SDS011;5770;44.504;11.346;2022-12-16T16:17:36;28.52;;;25.08;;
11427;SDS011;5770;44.504;11.346;2022-12-16T16:20:23;28.95;;;25.85;;
11427;SDS011;5770;44.504;11.346;2022-12-16T16:23:08;30.38;;;27.08;;
11427;SDS011;5770;44.504;11.346;2022-12-16T16:26:08;36.40;;;29.65;;
11427;SDS011;5770;44.504;11.346;2022-12-16T16:28:54;35.42;;;30.45;;
11427;SDS011;5770;44.504;11.346;2022-12-16T16:31:40;35.30;;;30.20;;